Flight Track Log - Related Links

Times and Time Zones

All times are in EST time to prevent confusion due to time zone crossing. See the COM3163 flight status page for this flight to view local times or setup timezone preferences in your user account.

Time Position Orientation Groundspeed Altitude Reporting Facility
EST Latitude Longitude Course Direction KTS MPH feet Rate Location/Type
Thu 05:35:12 PM 39.8606 -75.2739 250° West 148 170 700  Level FAA TRACON SMA TRACON (SMA)
Thu 05:35:52 PM 39.8514 -75.3061 250° West 180 207 1,600 1,875 Climbing FAA TRACON SMA TRACON (SMA)
Thu 05:36:32 PM 39.8356 -75.3631 275° West 212 244 3,200 2,400 Climbing FAA TRACON SMA TRACON (SMA)
Thu 05:37:12 PM 39.8389 -75.4108 294° West 220 253 4,800 2,625 Climbing FAA TRACON SMA TRACON (SMA)
Thu 05:37:52 PM 39.8564 -75.4614 291° West 221 254 6,700 2,775 Climbing FAA TRACON SMA TRACON (SMA)
Thu 05:38:32 PM 39.8725 -75.5153 290° West 232 267 8,500 2,475 Climbing FAA TRACON SMA TRACON (SMA)
Thu 05:39:12 PM 39.8864 -75.5642 291° West 231 266 10,000 1,275 Climbing FAA TRACON SMA TRACON (SMA)
Thu 05:39:52 PM 39.9047 -75.6281 283° West 286 329 10,200 1,050 Climbing FAA TRACON SMA TRACON (SMA)
Thu 05:40:32 PM 39.9161 -75.6936 269° West 305 351 11,400 1,950 Climbing FAA TRACON SMA TRACON (SMA)
Thu 05:41:12 PM 39.9156 -75.7706 269° West 307 353 12,800 2,100 Climbing FAA TRACON SMA TRACON (SMA)
Thu 05:41:52 PM 39.9142 -75.8483 269° West 310 357 14,200 1,920 Climbing FAA TRACON SMA TRACON (SMA)
Thu 05:42:52 PM 39.9119 -75.9617 269° West 312 359 16,000 1,500 Climbing FAA TRACON SMA TRACON (SMA)
Thu 05:43:32 PM 39.9108 -76.0317 268° West 317 365 16,700 1,425 Climbing FAA TRACON SMA TRACON (SMA)
Thu 05:44:12 PM 39.9083 -76.1136 268° West 325 374 17,900 1,125 Climbing FAA TRACON SMA TRACON (SMA)
Thu 05:44:52 PM 39.9078 -76.1322 270° West 326 375 18,200 1,135 Climbing FAA TRACON SMA TRACON (SMA)
Thu 05:47:17 PM 39.9061 -76.4892 268° West 347 399 21,400 1,317 Climbing New York Center
Thu 05:48:17 PM 39.9014 -76.6294 266° West 359 413 22,700 1,091 Climbing New York Center
Thu 05:49:18 PM 39.8947 -76.7617 268° West 364 419 23,600 992 Climbing New York Center
Thu 05:50:18 PM 39.8919 -76.8939 263° West 364 419 24,700 1,005 Climbing New York Center
Thu 05:52:23 PM 39.8661 -77.1539 250° West 366 421 26,700 973 Climbing Washington Center
Thu 05:53:23 PM 39.8311 -77.2803 248° West 371 427 27,700 1,000 Climbing Washington Center
Thu 05:54:23 PM 39.7939 -77.4008 247° West 377 434 28,700 1,000 Climbing Washington Center
Thu 05:55:23 PM 39.7544 -77.5239 249° West 377 434 29,700 1,000 Climbing Washington Center
Thu 05:56:23 PM 39.7192 -77.6417 248° West 365 420 30,700 1,000 Climbing Washington Center
Thu 05:57:23 PM 39.6817 -77.7619 248° West 365 420 31,700 1,000 Climbing Washington Center
Thu 05:58:23 PM 39.6461 -77.8769 248° West 360 414 32,700 850 Climbing Washington Center
Thu 05:59:23 PM 39.6083 -77.9969 249° West 355 409 33,400 700 Climbing Washington Center
Thu 06:00:23 PM 39.5728 -78.1142 248° West 355 409 34,100 800 Climbing Washington Center
Thu 06:01:23 PM 39.5325 -78.2444 247° West 350 403 35,000 800 Climbing Washington Center
Thu 06:02:23 PM 39.4944 -78.3614 248° West 350 403 35,700 500 Climbing Washington Center
Thu 06:03:23 PM 39.4561 -78.4811 247° West 350 403 36,000 150 Climbing Washington Center
Thu 06:04:23 PM 39.4178 -78.6003 246° West 355 409 36,000  Level Washington Center
Thu 06:05:23 PM 39.3750 -78.7247 248° West 369 425 36,000  Level Washington Center
Thu 06:06:23 PM 39.3361 -78.8519 247° West 375 432 36,000  Level Washington Center
Thu 06:07:23 PM 39.2931 -78.9842 247° West 388 447 36,000  Level Washington Center
Thu 06:08:23 PM 39.2519 -79.1081 249° West 388 447 36,000  Level Washington Center
Thu 06:09:23 PM 39.2125 -79.2375 250° West 388 447 36,000  Level Washington Center
Thu 06:10:23 PM 39.1797 -79.3536 247° West 388 447 36,000  Level Washington Center
Thu 06:11:23 PM 39.1361 -79.4828 248° West 388 447 36,000  Level Washington Center
Thu 06:12:23 PM 39.0967 -79.6061 246° West 388 447 36,000  Level Washington Center
Thu 06:13:23 PM 39.0525 -79.7347 247° West 388 447 36,000  Level Washington Center
Thu 06:14:23 PM 39.0058 -79.8792 247° West 388 447 36,000  Level Washington Center
Thu 06:16:07 PM 38.9403 -80.0728 245° Southwest 391 450 36,000  Level Indianapolis Center
Thu 06:17:07 PM 38.8942 -80.2003 246° West 384 442 36,000  Level Indianapolis Center
Thu 06:18:07 PM 38.8517 -80.3250 246° West 378 435 36,000  Level Indianapolis Center
Thu 06:19:07 PM 38.8092 -80.4494 246° West 383 441 36,000  Level Indianapolis Center
Thu 06:20:07 PM 38.7664 -80.5739 246° West 383 441 36,000  Level Indianapolis Center
Thu 06:21:07 PM 38.7236 -80.6956 247° West 383 441 36,000  Level Indianapolis Center
Thu 06:22:07 PM 38.6806 -80.8222 246° West 383 441 36,000  Level Indianapolis Center
Thu 06:23:07 PM 38.6375 -80.9461 246° West 383 441 36,000  Level Indianapolis Center
Thu 06:24:07 PM 38.5906 -81.0806 246° West 378 435 36,000  Level Indianapolis Center
Thu 06:25:07 PM 38.5472 -81.2044 246° West 383 441 36,000  Level Indianapolis Center
Thu 06:26:07 PM 38.5036 -81.3278 246° West 383 441 36,000  Level Indianapolis Center
Thu 06:27:07 PM 38.4600 -81.4511 247° West 383 441 36,000  Level Indianapolis Center
Thu 06:28:07 PM 38.4183 -81.5744 246° West 383 441 36,000  Level Indianapolis Center
Thu 06:29:07 PM 38.3744 -81.6975 249° West 378 435 36,000  Level Indianapolis Center
Thu 06:30:07 PM 38.3367 -81.8200 249° West 378 435 36,000  Level Indianapolis Center
Thu 06:31:07 PM 38.2989 -81.9453 251° West 378 435 36,000  Level Indianapolis Center
Thu 06:32:07 PM 38.2650 -82.0731 250° West 378 435 36,000  Level Indianapolis Center
Thu 06:33:07 PM 38.2331 -82.1847 251° West 378 435 36,000  Level Indianapolis Center
Thu 06:34:07 PM 38.1989 -82.3097 251° West 378 435 36,000  Level Indianapolis Center
Thu 06:35:07 PM 38.1647 -82.4344 249° West 378 435 36,000  Level Indianapolis Center
Thu 06:36:07 PM 38.1242 -82.5697 251° West 378 435 36,000  Level Indianapolis Center
Thu 06:37:07 PM 38.0897 -82.6942 250° West 373 429 36,000  Level Indianapolis Center
Thu 06:38:07 PM 38.0531 -82.8186 249° West 373 429 36,000  Level Indianapolis Center
Thu 06:39:07 PM 38.0164 -82.9428 251° West 373 429 36,000  Level Indianapolis Center
Thu 06:40:07 PM 37.9814 -83.0694 249° West 373 429 36,000  Level Indianapolis Center
Thu 06:41:07 PM 37.9444 -83.1936 249° West 373 429 36,000  Level Indianapolis Center
Thu 06:42:07 PM 37.9069 -83.3175 250° West 379 436 36,000  Level Indianapolis Center
Thu 06:43:07 PM 37.8697 -83.4464 249° West 384 442 36,000  Level Indianapolis Center
Thu 06:44:07 PM 37.8322 -83.5703 249° West 389 448 36,000  Level Indianapolis Center
Thu 06:45:07 PM 37.7947 -83.6964 250° West 389 448 36,000  Level Indianapolis Center
Thu 06:46:07 PM 37.7569 -83.8250 249° West 389 448 36,000  Level Indianapolis Center
Thu 06:47:07 PM 37.7189 -83.9483 249° West 389 448 36,000  Level Indianapolis Center
Thu 06:48:07 PM 37.6808 -84.0739 248° West 389 448 36,000  Level Indianapolis Center
Thu 06:49:07 PM 37.6469 -84.1814 248° West 389 448 36,000  Level Indianapolis Center
Thu 06:50:07 PM 37.6089 -84.2989 249° West 380 437 36,000  Level Indianapolis Center
Thu 06:51:07 PM 37.5725 -84.4192 249° West 374 430 36,000  Level Indianapolis Center
Thu 06:52:07 PM 37.5361 -84.5417 248° West 374 430 36,000  Level Indianapolis Center
Thu 06:53:07 PM 37.4975 -84.6617 249° West 368 423 36,000  Level Indianapolis Center
Thu 06:54:07 PM 37.4608 -84.7789 250° West 368 423 36,000  Level Indianapolis Center
Thu 06:55:07 PM 37.4261 -84.8961 247° West 373 429 36,000  Level Indianapolis Center
Thu 06:56:07 PM 37.3872 -85.0131 248° West 367 422 36,000  Level Indianapolis Center
Thu 06:57:07 PM 37.3503 -85.1297 249° West 367 422 36,000  Level Indianapolis Center
Thu 06:58:07 PM 37.3153 -85.2414 248° West 367 422 36,000  Level Indianapolis Center
Thu 06:59:07 PM 37.2781 -85.3581 250° West 367 422 36,000  Level Indianapolis Center
Thu 07:00:39 PM 37.2294 -85.5272 248° West 356 410 36,000  Level Memphis Center
Thu 07:01:39 PM 37.1922 -85.6414 248° West 356 410 36,000  Level Memphis Center
Thu 07:02:39 PM 37.1550 -85.7556 249° West 356 410 36,000  Level Memphis Center
Thu 07:03:39 PM 37.1214 -85.8642 247° West 356 410 36,000  Level Memphis Center
Thu 07:04:39 PM 37.0836 -85.9756 248° West 350 403 36,000  Level Memphis Center
Thu 07:05:39 PM 37.0481 -86.0867 247° West 350 403 36,000  Level Memphis Center
Thu 07:06:39 PM 37.0100 -86.2003 248° West 350 403 36,000  Level Memphis Center
Thu 07:07:39 PM 36.9725 -86.3192 247° West 350 403 36,000  Level Memphis Center
Thu 07:08:39 PM 36.9342 -86.4300 242° Southwest 350 403 36,000  Level Memphis Center
Thu 07:09:39 PM 36.8897 -86.5361 242° Southwest 345 397 36,000  Level Memphis Center
Thu 07:10:39 PM 36.8431 -86.6444 241° Southwest 357 411 36,000  Level Memphis Center
Thu 07:11:39 PM 36.7981 -86.7478 241° Southwest 357 411 36,000  Level Memphis Center
Thu 07:12:39 PM 36.7492 -86.8561 242° Southwest 357 411 36,000  Level Memphis Center
Thu 07:13:39 PM 36.7042 -86.9614 239° Southwest 357 411 36,000  Level Memphis Center
Thu 07:14:39 PM 36.6528 -87.0697 241° Southwest 357 411 36,000  Level Memphis Center
Thu 07:15:39 PM 36.6056 -87.1775 240° Southwest 357 411 36,000  Level Memphis Center
Thu 07:16:39 PM 36.5561 -87.2856 240° Southwest 357 411 36,000  Level Memphis Center
Thu 07:17:39 PM 36.5086 -87.3881 240° Southwest 357 411 36,000 -500 Level Memphis Center
Thu 07:18:39 PM 36.4572 -87.5008 241° Southwest 363 418 35,000 -500 Descending Memphis Center
Thu 07:19:39 PM 36.4075 -87.6108 240° Southwest 368 423 35,000  Level Memphis Center
Thu 07:20:39 PM 36.3578 -87.7181 241° Southwest 368 423 35,000  Level Memphis Center
Thu 07:21:39 PM 36.3139 -87.8150 240° Southwest 368 423 35,000  Level Memphis Center
Thu 07:22:39 PM 36.2639 -87.9219 241° Southwest 363 418 35,000 -900 Level Memphis Center
Thu 07:23:39 PM 36.2139 -88.0314 241° Southwest 368 423 33,200 -2,000 Descending Memphis Center
Thu 07:24:39 PM 36.1597 -88.1539 241° Southwest 368 423 31,000 -2,150 Descending Memphis Center
Thu 07:25:39 PM 36.1075 -88.2683 240° Southwest 373 429 28,900 -2,050 Descending Memphis Center
Thu 07:26:39 PM 36.0531 -88.3828 240° Southwest 381 438 26,900 -2,000 Descending Memphis Center
Thu 07:27:39 PM 35.9967 -88.5019 240° Southwest 392 451 24,900 -2,250 Descending Memphis Center
Thu 07:28:39 PM 35.9400 -88.6214 241° Southwest 405 466 22,400 -2,500 Descending Memphis Center
Thu 07:29:39 PM 35.8872 -88.7378 239° Southwest 405 466 19,900 -2,350 Descending Memphis Center
Thu 07:30:39 PM 35.8325 -88.8514 239° Southwest 405 466 17,700 -2,100 Descending Memphis Center
Thu 07:31:39 PM 35.7794 -88.9600 239° Southwest 395 455 15,700 -2,000 Descending Memphis Center
Thu 07:32:39 PM 35.7244 -89.0708 230° Southwest 390 449 13,700 -1,950 Descending Memphis Center
Thu 07:33:39 PM 35.6608 -89.1639 224° Southwest 384 442 11,800 -1,821 Descending Memphis Center
Thu 07:34:31 PM 35.6075 -89.2281 227° Southwest 364 419 10,300 -1,121 Descending FAA TRACON SMA TRACON (SMA)
Thu 07:35:10 PM 35.5606 -89.2894 226° Southwest 353 406 10,100 -120 Descending FAA TRACON SMA TRACON (SMA)
Thu 07:36:11 PM 35.4944 -89.3736 230° Southwest 340 391 10,100  Level FAA TRACON SMA TRACON (SMA)
Thu 07:36:50 PM 35.4536 -89.4339 242° Southwest 330 380 10,100 -150 Level FAA TRACON SMA TRACON (SMA)
Thu 07:37:31 PM 35.4319 -89.4833 241° Southwest 272 313 9,900 -1,200 Descending FAA TRACON SMA TRACON (SMA)
Thu 07:38:10 PM 35.4081 -89.5356 242° Southwest 254 292 8,500 -1,950 Descending FAA TRACON SMA TRACON (SMA)
Thu 07:38:51 PM 35.3853 -89.5878 244° Southwest 251 289 7,300 -1,800 Descending FAA TRACON SMA TRACON (SMA)
Thu 07:39:30 PM 35.3667 -89.6336 243° Southwest 246 283 6,100 -1,950 Descending FAA TRACON SMA TRACON (SMA)
Thu 07:40:11 PM 35.3453 -89.6858 246° West 246 283 4,700 -1,500 Descending FAA TRACON SMA TRACON (SMA)
Thu 07:40:50 PM 35.3261 -89.7392 247° West 247 284 4,100 -450 Descending FAA TRACON SMA TRACON (SMA)
Thu 07:41:31 PM 35.3094 -89.7864 234° Southwest 245 282 4,100 -525 Level FAA TRACON SMA TRACON (SMA)
Thu 07:42:10 PM 35.2819 -89.8331 231° Southwest 239 275 3,400 -750 Descending FAA TRACON SMA TRACON (SMA)
Thu 07:42:51 PM 35.2539 -89.8758 232° Southwest 234 269 3,100 -222 Descending FAA TRACON SMA TRACON (SMA)
Thu 07:43:31 PM 35.2256 -89.9197 219° Southwest 235 270 3,100 -150 Level FAA TRACON SMA TRACON (SMA)
Thu 07:44:11 PM 35.1953 -89.9500 210° Southwest 223 257 2,900 -525 Descending FAA TRACON SMA TRACON (SMA)
Thu 07:44:51 PM 35.1608 -89.9739 182° South 202 232 2,400 -675 Descending FAA TRACON SMA TRACON (SMA)
Thu 07:45:31 PM 35.1314 -89.9753 179° South 166 191 2,000 -675 Descending FAA TRACON SMA TRACON (SMA)
Thu 07:46:11 PM 35.1031 -89.9744 179° South 155 178 1,500 -759 Descending FAA TRACON SMA TRACON (SMA)
Thu 07:46:50 PM 35.0789 -89.9739 178° South 126 145 1,000 -675 Descending FAA TRACON SMA TRACON (SMA)
Thu 07:47:31 PM 35.0586 -89.9731 178° South 118 136 600 -585 Descending FAA TRACON SMA TRACON (SMA)

Login

Don't have an account? Register now (free) for customized features, flight alerts, and more!